createdAt,value
2023-01-11T00:01:18.584Z,17.20
2023-01-11T00:03:20.431Z,17.20
2023-01-11T00:05:22.234Z,17.20
2023-01-11T00:07:25.167Z,17.20
2023-01-11T00:09:26.945Z,17.20
2023-01-11T00:11:28.736Z,17.20
2023-01-11T00:13:31.325Z,17.20
2023-01-11T00:15:34.462Z,17.20
2023-01-11T00:17:36.186Z,17.20
2023-01-11T00:19:37.948Z,17.30
2023-01-11T00:21:39.706Z,17.20
2023-01-11T00:23:41.497Z,17.30
2023-01-11T00:25:43.280Z,17.30
2023-01-11T00:27:45.069Z,17.30
2023-01-11T00:29:46.808Z,17.30
2023-01-11T00:31:48.650Z,17.30
2023-01-11T00:33:50.467Z,17.30
2023-01-11T00:35:52.491Z,17.30
2023-01-11T00:37:54.408Z,17.30
2023-01-11T00:39:56.229Z,17.30
2023-01-11T00:41:58.031Z,17.30
2023-01-11T00:44:00.461Z,17.30
2023-01-11T00:46:02.244Z,17.30
2023-01-11T00:48:04.537Z,17.30
2023-01-11T00:50:06.406Z,17.30
2023-01-11T00:52:08.559Z,17.30
2023-01-11T00:54:10.519Z,17.20
2023-01-11T00:56:12.327Z,17.30
2023-01-11T00:58:14.074Z,17.30
2023-01-11T01:00:15.997Z,17.30
2023-01-11T01:02:17.759Z,17.30
2023-01-11T01:04:19.606Z,17.30
2023-01-11T01:06:21.625Z,17.30
2023-01-11T01:08:23.416Z,17.30
2023-01-11T01:10:25.168Z,17.30
2023-01-11T01:12:26.991Z,17.30
2023-01-11T01:14:29.174Z,17.30
2023-01-11T01:16:31.023Z,17.30
2023-01-11T01:18:32.755Z,17.40
2023-01-11T01:20:34.563Z,17.30
2023-01-11T01:22:36.268Z,17.30
2023-01-11T01:24:38.636Z,17.30
2023-01-11T01:26:40.364Z,17.30
2023-01-11T01:28:42.229Z,17.30
2023-01-11T01:30:43.976Z,17.30
2023-01-11T01:32:45.772Z,17.30
2023-01-11T01:34:47.601Z,17.30
2023-01-11T01:36:49.504Z,17.30
2023-01-11T01:38:51.265Z,17.30
2023-01-11T01:40:53.036Z,17.30
2023-01-11T01:42:55.149Z,17.30
2023-01-11T01:45:01.847Z,17.30
2023-01-11T01:47:04.322Z,17.30
2023-01-11T01:49:06.102Z,17.30
2023-01-11T01:51:08.302Z,17.30
2023-01-11T01:53:12.732Z,17.30
2023-01-11T01:55:17.396Z,17.30
2023-01-11T01:57:21.241Z,17.30
2023-01-11T01:59:23.816Z,17.30
2023-01-11T02:01:26.991Z,17.30
2023-01-11T02:03:28.723Z,17.30
2023-01-11T02:05:30.809Z,17.30
2023-01-11T02:07:34.373Z,17.30
2023-01-11T02:09:44.153Z,17.30
2023-01-11T02:11:46.979Z,17.30
2023-01-11T02:13:48.801Z,17.30
2023-01-11T02:15:50.663Z,17.30
2023-01-11T02:17:52.539Z,17.40
2023-01-11T02:19:56.945Z,17.40
2023-01-11T02:22:01.788Z,17.40
2023-01-11T02:24:25.565Z,17.30
2023-01-11T02:26:42.625Z,17.30
2023-01-11T02:29:02.388Z,17.30
2023-01-11T02:31:07.024Z,17.30
2023-01-11T02:33:15.258Z,17.30
2023-01-11T02:35:17.057Z,17.30
2023-01-11T02:37:21.465Z,17.30
2023-01-11T02:39:32.396Z,17.30
2023-01-11T02:41:52.947Z,17.30
2023-01-11T02:44:00.942Z,17.30
2023-01-11T02:46:09.312Z,17.30
2023-01-11T02:48:14.020Z,17.30
2023-01-11T02:50:22.755Z,17.30
2023-01-11T02:52:30.145Z,17.30
2023-01-11T02:54:33.425Z,17.30
2023-01-11T02:56:38.038Z,17.30
2023-01-11T02:58:42.122Z,17.30
2023-01-11T03:00:44.530Z,17.30
2023-01-11T03:02:46.472Z,17.30
2023-01-11T03:04:48.302Z,17.30
2023-01-11T03:06:53.148Z,17.30
2023-01-11T03:08:58.211Z,17.30
2023-01-11T03:11:02.475Z,17.40
2023-01-11T03:13:07.123Z,17.30
2023-01-11T03:15:18.414Z,17.30
2023-01-11T03:17:20.278Z,17.30
2023-01-11T03:19:28.614Z,17.30
2023-01-11T03:21:30.403Z,17.30
2023-01-11T03:23:50.418Z,17.30
2023-01-11T03:25:54.947Z,17.30
2023-01-11T03:28:09.196Z,17.30
2023-01-11T03:30:21.949Z,17.30
2023-01-11T03:32:29.913Z,17.30
2023-01-11T03:34:35.766Z,17.20
2023-01-11T03:36:40.205Z,17.30
2023-01-11T03:38:57.102Z,17.30
2023-01-11T03:41:05.925Z,17.30
2023-01-11T03:43:10.230Z,17.30
2023-01-11T03:45:12.155Z,17.30
2023-01-11T03:47:15.821Z,17.30
2023-01-11T03:49:23.038Z,17.30
2023-01-11T03:51:26.123Z,17.30
2023-01-11T03:53:30.046Z,17.30
2023-01-11T03:55:34.900Z,17.30
2023-01-11T03:57:39.710Z,17.30
2023-01-11T03:59:41.949Z,17.30
2023-01-11T04:01:47.279Z,17.30
2023-01-11T04:03:49.262Z,17.40
2023-01-11T04:05:53.288Z,17.40
2023-01-11T04:07:55.195Z,17.40
2023-01-11T04:09:57.004Z,17.30
2023-01-11T04:11:58.821Z,17.40
2023-01-11T04:14:00.700Z,17.40
2023-01-11T04:16:02.586Z,17.40
2023-01-11T04:18:05.027Z,17.40
2023-01-11T04:20:07.427Z,17.40
2023-01-11T04:22:09.235Z,17.40
2023-01-11T04:24:12.441Z,17.30
2023-01-11T04:26:14.188Z,17.40
2023-01-11T04:28:16.010Z,17.40
2023-01-11T04:30:17.829Z,17.30
2023-01-11T04:32:19.814Z,17.30
2023-01-11T04:34:21.638Z,17.30
2023-01-11T04:36:23.870Z,17.30
2023-01-11T04:38:28.054Z,17.30
2023-01-11T04:40:33.263Z,17.30
2023-01-11T04:42:35.074Z,17.30
2023-01-11T04:44:36.935Z,17.30
2023-01-11T04:46:41.374Z,17.30
2023-01-11T04:48:43.236Z,17.40
2023-01-11T04:50:48.296Z,17.40
2023-01-11T04:52:52.810Z,17.40
2023-01-11T04:54:54.739Z,17.30
2023-01-11T04:56:57.697Z,17.40
2023-01-11T04:58:59.650Z,17.30
2023-01-11T05:01:07.468Z,17.30
2023-01-11T05:03:09.387Z,17.30
2023-01-11T05:05:11.226Z,17.30
2023-01-11T05:07:13.893Z,17.30
2023-01-11T05:09:17.052Z,17.30
2023-01-11T05:11:18.988Z,17.30
2023-01-11T05:13:22.466Z,17.30
2023-01-11T05:15:24.247Z,17.30
2023-01-11T05:17:26.137Z,17.30
2023-01-11T05:19:28.052Z,17.30
2023-01-11T05:21:31.282Z,17.30
2023-01-11T05:23:33.898Z,17.30
2023-01-11T05:25:35.695Z,17.30
2023-01-11T05:27:37.430Z,17.30
2023-01-11T05:29:39.352Z,17.30
2023-01-11T05:31:41.143Z,17.40
2023-01-11T05:33:43.608Z,17.40
2023-01-11T05:35:45.480Z,17.40
2023-01-11T05:37:47.374Z,17.40
2023-01-11T05:39:49.117Z,17.40
2023-01-11T05:41:50.937Z,17.40
2023-01-11T05:43:53.228Z,17.30
2023-01-11T05:45:56.279Z,17.30
2023-01-11T05:47:58.623Z,17.30
2023-01-11T05:50:00.522Z,17.30
2023-01-11T05:52:02.301Z,17.30
2023-01-11T05:54:04.967Z,17.30
2023-01-11T05:56:07.117Z,17.30
2023-01-11T05:58:09.075Z,17.30
2023-01-11T06:00:11.530Z,17.30
2023-01-11T06:02:13.526Z,17.30
2023-01-11T06:04:15.372Z,17.30
2023-01-11T06:06:18.154Z,17.30
2023-01-11T06:08:20.559Z,17.30
2023-01-11T06:10:22.478Z,17.30
2023-01-11T06:12:24.334Z,17.30
2023-01-11T06:14:26.281Z,17.30
2023-01-11T06:16:28.157Z,17.30
2023-01-11T06:18:31.133Z,17.30
2023-01-11T06:20:33.011Z,17.30
2023-01-11T06:22:34.879Z,17.30
2023-01-11T06:24:36.661Z,17.30
2023-01-11T06:26:38.559Z,17.30
2023-01-11T06:28:40.987Z,17.30
2023-01-11T06:30:42.815Z,17.30
2023-01-11T06:32:44.651Z,17.30
2023-01-11T06:34:46.527Z,17.30
2023-01-11T06:36:48.477Z,17.30
2023-01-11T06:38:52.081Z,17.20
2023-01-11T06:40:58.185Z,17.20
2023-01-11T06:43:00.206Z,17.20
2023-01-11T06:45:01.964Z,17.20
2023-01-11T06:47:03.827Z,17.20
2023-01-11T06:49:05.588Z,17.20
2023-01-11T06:51:07.504Z,17.20
2023-01-11T06:53:09.410Z,17.20
2023-01-11T06:55:11.188Z,17.20
2023-01-11T06:57:13.850Z,17.20
2023-01-11T06:59:15.786Z,17.20
2023-01-11T07:01:18.109Z,17.20
2023-01-11T07:03:20.475Z,17.20
2023-01-11T07:05:22.441Z,17.20
2023-01-11T07:07:24.362Z,17.20
2023-01-11T07:09:26.185Z,17.20
2023-01-11T07:11:27.955Z,17.20
2023-01-11T07:13:29.690Z,17.20
2023-01-11T07:15:31.604Z,17.20
2023-01-11T07:17:33.812Z,17.20
2023-01-11T07:19:35.964Z,17.20
2023-01-11T07:21:37.731Z,17.20
2023-01-11T07:23:39.512Z,17.20
2023-01-11T07:25:41.546Z,17.20
2023-01-11T07:27:43.339Z,17.20
2023-01-11T07:29:45.515Z,17.20
2023-01-11T07:31:47.540Z,17.20
2023-01-11T07:33:49.507Z,17.20
2023-01-11T07:35:52.410Z,17.20
2023-01-11T07:37:54.171Z,17.20
2023-01-11T07:39:56.104Z,17.20
2023-01-11T07:41:57.894Z,17.20
2023-01-11T07:43:59.922Z,17.20
2023-01-11T07:46:01.793Z,17.20
2023-01-11T07:48:04.885Z,17.20
2023-01-11T07:50:07.134Z,17.20
2023-01-11T07:52:08.980Z,17.20
2023-01-11T07:54:10.778Z,17.20
2023-01-11T07:56:12.876Z,17.30
2023-01-11T07:58:14.946Z,17.30
2023-01-11T08:00:17.399Z,17.30
2023-01-11T08:02:19.212Z,17.20
2023-01-11T08:04:21.067Z,17.20
2023-01-11T08:06:22.857Z,17.20
2023-01-11T08:08:24.684Z,17.20
2023-01-11T08:10:41.191Z,17.20
2023-01-11T08:12:51.344Z,17.20
2023-01-11T08:15:02.093Z,17.30
2023-01-11T08:17:15.588Z,17.30
2023-01-11T08:19:21.176Z,17.30
2023-01-11T08:21:34.358Z,17.40
2023-01-11T08:23:53.305Z,17.20
2023-01-11T08:25:56.905Z,17.30
2023-01-11T08:28:16.068Z,17.40
2023-01-11T08:30:23.789Z,17.40
2023-01-11T08:35:11.415Z,17.30
2023-01-11T08:37:13.267Z,17.40
2023-01-11T08:39:38.522Z,17.40
2023-01-11T08:41:40.326Z,17.40
2023-01-11T08:43:43.167Z,17.40
2023-01-11T08:45:46.606Z,17.30
2023-01-11T08:47:49.329Z,17.30
2023-01-11T08:49:51.651Z,17.30
2023-01-11T08:51:53.472Z,17.40
2023-01-11T08:53:55.234Z,17.40
2023-01-11T08:55:57.044Z,17.50
2023-01-11T08:57:58.778Z,17.50
2023-01-11T09:00:00.599Z,17.50
2023-01-11T09:02:02.589Z,17.50
2023-01-11T09:04:15.577Z,17.50
2023-01-11T09:06:25.937Z,17.60
2023-01-11T09:08:28.083Z,17.50
2023-01-11T09:10:32.190Z,17.50
2023-01-11T09:12:34.018Z,17.40
2023-01-11T09:14:37.914Z,16.80
2023-01-11T09:16:48.064Z,16.10
2023-01-11T09:19:03.392Z,16.40
2023-01-11T09:21:08.622Z,16.70
2023-01-11T09:23:12.054Z,17.10
2023-01-11T09:25:17.620Z,17.30
2023-01-11T09:27:19.832Z,17.50
2023-01-11T09:29:21.689Z,17.50
2023-01-11T09:31:24.809Z,17.60
2023-01-11T09:36:11.216Z,17.70
2023-01-11T09:38:14.080Z,17.70
2023-01-11T09:40:20.826Z,17.80
2023-01-11T09:42:33.251Z,17.90
2023-01-11T09:44:35.782Z,17.90
2023-01-11T09:46:40.455Z,17.90
2023-01-11T09:48:47.740Z,17.90
2023-01-11T09:53:19.343Z,17.90
2023-01-11T09:55:25.416Z,18.00
2023-01-11T09:57:47.447Z,18.00
2023-01-11T10:00:01.122Z,18.00
2023-01-11T10:02:24.535Z,18.20
2023-01-11T10:04:32.516Z,18.20
2023-01-11T10:06:53.104Z,18.10
2023-01-11T10:18:26.160Z,17.40
2023-01-11T10:18:49.358Z,17.50
2023-01-11T10:20:51.382Z,17.70
2023-01-11T10:23:00.913Z,17.80
2023-01-11T10:25:35.152Z,17.90
2023-01-11T10:27:39.804Z,18.00
2023-01-11T10:29:44.194Z,18.00
2023-01-11T10:31:51.094Z,18.00
2023-01-11T10:33:54.747Z,18.10
2023-01-11T10:35:59.539Z,18.30
2023-01-11T10:38:02.728Z,18.20
2023-01-11T10:40:07.457Z,18.20
2023-01-11T10:42:15.517Z,18.20
2023-01-11T10:44:21.912Z,18.20
2023-01-11T10:46:25.661Z,18.20
2023-01-11T10:48:36.758Z,18.20
2023-01-11T10:50:38.469Z,18.20
2023-01-11T10:52:48.716Z,18.20
2023-01-11T10:54:51.098Z,18.20
2023-01-11T10:57:03.556Z,18.20
2023-01-11T10:59:12.853Z,18.20
2023-01-11T11:01:17.300Z,18.10
2023-01-11T11:03:24.895Z,18.00
2023-01-11T11:05:26.752Z,18.00
2023-01-11T11:07:36.538Z,18.10
2023-01-11T11:09:48.715Z,18.20
2023-01-11T11:11:59.582Z,18.20
2023-01-11T11:14:07.445Z,18.20
2023-01-11T11:16:15.163Z,18.20
2023-01-11T11:18:17.078Z,18.20
2023-01-11T11:20:23.026Z,18.30
2023-01-11T11:22:24.909Z,18.30
2023-01-11T11:24:40.981Z,18.30
2023-01-11T11:26:44.981Z,18.30
2023-01-11T11:29:06.965Z,18.30
2023-01-11T11:31:08.872Z,18.40
2023-01-11T11:33:21.825Z,18.40
2023-01-11T11:35:30.716Z,18.40
2023-01-11T11:37:33.976Z,18.30
2023-01-11T11:39:35.881Z,18.30
2023-01-11T11:41:50.637Z,18.30
2023-01-11T11:44:07.925Z,18.20
2023-01-11T11:46:19.715Z,18.20
2023-01-11T11:48:22.793Z,18.20
2023-01-11T11:50:43.128Z,18.20
2023-01-11T11:52:48.197Z,18.20
2023-01-11T11:54:51.483Z,18.20
2023-01-11T11:56:54.437Z,18.10
2023-01-11T11:58:56.768Z,18.20
2023-01-11T12:00:58.604Z,18.20
2023-01-11T12:03:02.801Z,18.10
2023-01-11T12:05:06.755Z,18.10
2023-01-11T12:07:13.411Z,18.20
2023-01-11T12:09:26.857Z,18.20
2023-01-11T12:11:31.523Z,18.20
2023-01-11T12:13:37.801Z,18.20
2023-01-11T12:15:39.558Z,18.30
2023-01-11T12:17:41.998Z,18.20
2023-01-11T12:19:44.254Z,18.20
2023-01-11T12:21:46.061Z,18.20
2023-01-11T12:23:48.457Z,18.20
2023-01-11T12:26:07.440Z,18.20
2023-01-11T12:28:15.715Z,18.30
2023-01-11T12:30:23.655Z,18.30
2023-01-11T12:32:33.848Z,18.30
2023-01-11T12:34:41.439Z,18.30
2023-01-11T12:36:53.878Z,18.30
2023-01-11T12:39:01.997Z,18.30
2023-01-11T12:41:18.989Z,18.20
2023-01-11T12:43:39.665Z,18.20
2023-01-11T12:45:44.530Z,18.30
2023-01-11T12:47:55.526Z,18.30
2023-01-11T12:50:11.855Z,18.30
2023-01-11T12:52:16.380Z,18.30
2023-01-11T12:54:30.174Z,18.30
2023-01-11T12:56:37.758Z,18.30
2023-01-11T12:58:39.507Z,18.10
2023-01-11T13:00:55.645Z,18.00
2023-01-11T13:03:10.296Z,17.90
2023-01-11T13:05:48.313Z,17.80
2023-01-11T13:08:07.966Z,17.90
2023-01-11T13:10:09.937Z,18.20
2023-01-11T13:12:14.603Z,18.20
2023-01-11T13:14:23.126Z,18.10
2023-01-11T13:16:40.641Z,18.20
2023-01-11T13:18:59.479Z,18.20
2023-01-11T13:21:34.614Z,18.20
2023-01-11T13:23:53.032Z,18.20
2023-01-11T13:26:12.722Z,18.20
2023-01-11T13:31:19.123Z,18.10
2023-01-11T13:33:43.102Z,18.20
2023-01-11T13:35:49.261Z,18.20
2023-01-11T13:38:19.283Z,18.20
2023-01-11T13:43:38.115Z,18.20
2023-01-11T13:45:45.706Z,18.20
2023-01-11T13:48:04.226Z,18.20
2023-01-11T13:50:29.663Z,18.20
2023-01-11T13:53:00.728Z,18.10
2023-01-11T13:55:25.073Z,18.00
2023-01-11T13:58:04.205Z,18.00
2023-01-11T14:00:22.683Z,18.00
2023-01-11T14:02:46.537Z,18.10
2023-01-11T14:08:16.191Z,18.30
2023-01-11T14:10:18.992Z,18.30
2023-01-11T14:12:32.588Z,18.40
2023-01-11T14:14:48.288Z,18.30
2023-01-11T14:16:58.711Z,18.30
2023-01-11T14:19:22.223Z,18.20
2023-01-11T14:24:07.834Z,17.90
2023-01-11T14:26:35.831Z,17.80
2023-01-11T14:28:55.562Z,17.90
2023-01-11T14:31:29.554Z,18.10
2023-01-11T14:36:51.639Z,18.10
2023-01-11T14:38:59.202Z,18.20
2023-01-11T14:41:15.722Z,18.20
2023-01-11T14:43:37.640Z,18.30
2023-01-11T14:45:58.069Z,18.30
2023-01-11T14:48:02.768Z,18.40
2023-01-11T14:50:11.927Z,18.30
2023-01-11T14:52:16.042Z,18.30
2023-01-11T14:54:22.608Z,18.30
2023-01-11T14:56:43.818Z,18.40
2023-01-11T14:59:01.250Z,18.40
2023-01-11T15:01:04.743Z,18.50
2023-01-11T15:03:06.537Z,18.40
2023-01-11T15:05:09.002Z,18.30
2023-01-11T15:12:46.511Z,18.50
2023-01-11T15:14:50.043Z,18.50
2023-01-11T15:16:53.661Z,18.50
2023-01-11T15:18:55.724Z,18.60
2023-01-11T15:21:02.792Z,18.50
2023-01-11T15:23:05.346Z,18.40
2023-01-11T15:25:18.988Z,18.40
2023-01-11T15:27:30.486Z,18.40
2023-01-11T15:29:34.938Z,18.40
2023-01-11T15:31:36.856Z,18.40
2023-01-11T15:33:48.499Z,18.40
2023-01-11T15:35:56.383Z,18.50
2023-01-11T15:38:19.171Z,18.50
2023-01-11T15:40:23.565Z,18.50
2023-01-11T15:42:51.884Z,18.30
2023-01-11T15:44:59.662Z,18.30
2023-01-11T15:47:22.664Z,18.30
2023-01-11T15:49:24.394Z,18.30
2023-01-11T15:51:35.170Z,18.30
2023-01-11T15:54:00.771Z,18.20
2023-01-11T15:56:14.763Z,18.30
2023-01-11T15:58:31.601Z,18.20
2023-01-11T16:00:33.406Z,18.20
2023-01-11T16:02:53.931Z,18.20
2023-01-11T16:04:59.029Z,18.30
2023-01-11T16:07:19.213Z,18.20
2023-01-11T16:09:31.894Z,18.20
2023-01-11T16:12:04.029Z,18.30
2023-01-11T16:14:10.478Z,18.30
2023-01-11T16:16:21.301Z,18.30
2023-01-11T16:18:25.805Z,18.30
2023-01-11T16:20:27.626Z,18.40
2023-01-11T16:22:32.587Z,18.40
2023-01-11T16:24:38.797Z,18.30
2023-01-11T16:26:41.251Z,18.30
2023-01-11T16:28:50.574Z,18.20
2023-01-11T16:30:57.903Z,18.20
2023-01-11T16:33:18.392Z,18.20
2023-01-11T16:35:21.602Z,18.20
2023-01-11T16:37:58.747Z,18.10
2023-01-11T16:40:26.883Z,18.10
2023-01-11T16:42:31.671Z,18.20
2023-01-11T16:44:57.669Z,18.20
2023-01-11T16:47:12.348Z,18.10
2023-01-11T16:49:17.921Z,18.20
2023-01-11T16:51:20.246Z,18.30
2023-01-11T16:53:22.281Z,18.30
2023-01-11T16:55:37.496Z,18.30
2023-01-11T16:57:41.474Z,18.30
2023-01-11T16:59:43.209Z,18.20
2023-01-11T17:01:55.681Z,18.20
2023-01-11T17:03:57.445Z,18.10
2023-01-11T17:06:00.989Z,18.20
2023-01-11T17:08:22.695Z,18.20
2023-01-11T17:10:24.527Z,17.60
2023-01-11T17:12:26.509Z,17.00
2023-01-11T17:14:37.025Z,16.90
2023-01-11T17:16:44.497Z,16.90
2023-01-11T17:18:47.683Z,17.00
2023-01-11T17:20:52.769Z,17.10
2023-01-11T17:22:54.766Z,17.10
2023-01-11T17:24:58.379Z,17.10
2023-01-11T17:27:01.265Z,17.10
2023-01-11T17:29:03.484Z,17.10
2023-01-11T17:31:05.362Z,17.10
2023-01-11T17:33:22.883Z,17.10
2023-01-11T17:35:26.308Z,17.10
2023-01-11T17:37:28.323Z,17.10
2023-01-11T17:39:33.773Z,17.20
2023-01-11T17:41:35.779Z,17.20
2023-01-11T17:43:37.634Z,17.20
2023-01-11T17:48:53.469Z,17.30
2023-01-11T17:50:59.072Z,17.30
2023-01-11T17:53:01.998Z,17.30
2023-01-11T17:57:29.760Z,17.40
2023-01-11T17:59:31.817Z,17.50
2023-01-11T18:01:33.845Z,17.50
2023-01-11T18:03:40.880Z,17.50
2023-01-11T18:05:43.320Z,17.50
2023-01-11T18:07:47.405Z,17.60
2023-01-11T18:09:50.801Z,17.60
2023-01-11T18:11:53.451Z,17.70
2023-01-11T18:13:58.071Z,17.70
2023-01-11T18:16:00.494Z,17.70
2023-01-11T18:18:02.574Z,17.70
2023-01-11T18:20:16.220Z,17.70
2023-01-11T18:22:34.504Z,17.70
2023-01-11T18:24:37.610Z,17.80
2023-01-11T18:26:43.624Z,17.70
2023-01-11T18:28:45.742Z,17.80
2023-01-11T18:30:52.380Z,17.70
2023-01-11T18:32:54.357Z,17.90
2023-01-11T18:35:00.783Z,17.90
2023-01-11T18:37:03.632Z,17.90
2023-01-11T18:39:11.622Z,17.90
2023-01-11T18:41:14.796Z,17.90
2023-01-11T18:43:24.820Z,17.90
2023-01-11T18:45:26.667Z,17.90
2023-01-11T18:47:28.818Z,18.00
2023-01-11T18:49:30.901Z,18.00
2023-01-11T18:51:36.698Z,18.00
2023-01-11T18:53:38.559Z,18.10
2023-01-11T18:55:40.394Z,18.00
2023-01-11T18:57:43.173Z,18.00
2023-01-11T18:59:44.926Z,18.00
2023-01-11T19:01:56.624Z,18.00
2023-01-11T19:04:06.338Z,18.00
2023-01-11T19:06:11.189Z,18.00
2023-01-11T19:08:13.227Z,18.00
2023-01-11T19:10:20.639Z,18.00
2023-01-11T19:12:24.238Z,18.00
2023-01-11T19:14:26.132Z,18.00
2023-01-11T19:16:27.963Z,18.00
2023-01-11T19:18:30.987Z,18.10
2023-01-11T19:20:32.904Z,18.10
2023-01-11T19:22:38.124Z,18.10
2023-01-11T19:24:40.505Z,18.10
2023-01-11T19:26:44.846Z,18.10
2023-01-11T19:28:46.640Z,18.10
2023-01-11T19:30:48.664Z,18.20
2023-01-11T19:32:51.378Z,18.20
2023-01-11T19:34:54.722Z,18.10
2023-01-11T19:36:56.776Z,18.10
2023-01-11T19:38:59.000Z,18.10
2023-01-11T19:41:08.365Z,18.20
2023-01-11T19:43:10.781Z,18.20
2023-01-11T19:45:13.880Z,18.20
2023-01-11T19:47:16.478Z,18.30
2023-01-11T19:49:20.093Z,18.10
2023-01-11T19:51:22.608Z,18.00
2023-01-11T19:53:25.797Z,18.20
2023-01-11T19:55:28.229Z,18.10
2023-01-11T19:57:30.777Z,18.00
2023-01-11T19:59:33.231Z,18.30
2023-01-11T20:01:36.306Z,18.20
2023-01-11T20:03:40.257Z,18.10
2023-01-11T20:05:42.809Z,18.20
2023-01-11T20:07:46.292Z,18.10
2023-01-11T20:09:48.414Z,18.10
2023-01-11T20:11:50.884Z,18.10
2023-01-11T20:13:53.231Z,18.20
2023-01-11T20:15:55.652Z,18.20
2023-01-11T20:17:57.877Z,18.10
2023-01-11T20:20:00.216Z,18.10
2023-01-11T20:22:02.526Z,18.10
2023-01-11T20:24:05.504Z,18.00
2023-01-11T20:26:07.985Z,18.10
2023-01-11T20:28:10.304Z,18.00
2023-01-11T20:30:12.638Z,17.90
2023-01-11T20:32:39.209Z,18.00
2023-01-11T20:34:38.005Z,18.00
2023-01-11T20:36:40.252Z,18.10
2023-01-11T20:38:42.347Z,17.90
2023-01-11T20:40:44.634Z,18.00
2023-01-11T20:42:47.000Z,18.00
2023-01-11T20:44:49.871Z,18.00
2023-01-11T20:46:53.857Z,17.90
2023-01-11T20:48:56.359Z,18.00
2023-01-11T20:51:04.652Z,18.00
2023-01-11T20:53:07.139Z,18.10
2023-01-11T20:55:09.880Z,18.10
2023-01-11T20:57:12.104Z,18.10
2023-01-11T20:59:15.932Z,18.10
2023-01-11T21:01:19.021Z,18.10
2023-01-11T21:03:24.974Z,18.00
2023-01-11T21:05:29.171Z,18.10
2023-01-11T21:07:31.607Z,18.10
2023-01-11T21:09:34.048Z,18.00
2023-01-11T21:13:38.914Z,18.10
2023-01-11T21:15:41.326Z,18.10
2023-01-11T21:17:43.624Z,18.20
2023-01-11T21:19:45.817Z,18.10
2023-01-11T21:21:49.750Z,18.10
2023-01-11T21:23:55.610Z,18.00
2023-01-11T21:25:57.748Z,18.10
2023-01-11T21:27:59.470Z,18.10
2023-01-11T21:30:01.310Z,18.20
2023-01-11T21:32:03.198Z,18.10
2023-01-11T21:34:05.773Z,18.20
2023-01-11T21:36:09.376Z,18.20
2023-01-11T21:38:12.372Z,18.20
2023-01-11T21:40:14.353Z,18.00
2023-01-11T21:42:16.334Z,18.20
2023-01-11T21:44:19.054Z,18.10
2023-01-11T21:46:21.102Z,18.10
2023-01-11T21:48:23.244Z,17.90
2023-01-11T21:50:25.536Z,18.00
2023-01-11T21:52:27.935Z,18.00
2023-01-11T21:54:30.418Z,18.10
2023-01-11T21:56:32.514Z,18.10
2023-01-11T21:58:35.063Z,18.10
2023-01-11T22:00:37.284Z,17.90
2023-01-11T22:02:39.695Z,18.10
2023-01-11T22:04:41.833Z,18.00
2023-01-11T22:06:44.942Z,18.10
2023-01-11T22:08:47.132Z,18.10
2023-01-11T22:10:56.039Z,18.00
2023-01-11T22:12:58.213Z,17.90
2023-01-11T22:15:00.395Z,18.00
2023-01-11T22:17:04.549Z,18.00
2023-01-11T22:19:07.523Z,17.80
2023-01-11T22:21:11.296Z,17.90
2023-01-11T22:23:13.661Z,18.00
2023-01-11T22:25:16.077Z,18.00
2023-01-11T22:27:18.394Z,17.90
2023-01-11T22:29:20.638Z,17.80
2023-01-11T22:31:23.521Z,17.90
2023-01-11T22:33:26.040Z,17.90
2023-01-11T22:35:28.305Z,17.90
2023-01-11T22:37:30.660Z,17.90
2023-01-11T22:39:32.949Z,17.90
2023-01-11T22:41:35.205Z,17.90
2023-01-11T22:43:37.688Z,17.70
2023-01-11T22:45:39.901Z,17.90
2023-01-11T22:47:42.510Z,18.00
2023-01-11T22:49:45.588Z,17.90
2023-01-11T22:51:48.226Z,17.90
2023-01-11T22:53:51.404Z,17.90
2023-01-11T22:55:54.035Z,18.00
2023-01-11T22:57:57.538Z,18.00
2023-01-11T23:00:02.754Z,17.90
2023-01-11T23:02:04.904Z,17.90
2023-01-11T23:04:08.585Z,18.00
2023-01-11T23:06:11.136Z,17.90
2023-01-11T23:08:13.957Z,18.00
2023-01-11T23:10:16.007Z,17.80
2023-01-11T23:12:18.650Z,17.90
2023-01-11T23:14:20.931Z,17.80
2023-01-11T23:16:23.440Z,17.90
2023-01-11T23:18:25.582Z,17.90
2023-01-11T23:20:27.841Z,17.90
2023-01-11T23:22:30.241Z,17.90
2023-01-11T23:24:32.529Z,17.90
2023-01-11T23:26:34.856Z,17.90
2023-01-11T23:28:37.023Z,17.90
2023-01-11T23:30:39.124Z,17.90
2023-01-11T23:32:41.384Z,17.90
2023-01-11T23:34:43.424Z,17.90
2023-01-11T23:36:46.256Z,17.90
2023-01-11T23:38:48.632Z,17.90
2023-01-11T23:40:50.530Z,17.90
2023-01-11T23:42:52.297Z,17.90
2023-01-11T23:44:54.477Z,17.80
2023-01-11T23:46:56.276Z,17.80
2023-01-11T23:48:58.171Z,17.80
2023-01-11T23:51:03.329Z,17.80
2023-01-11T23:53:05.299Z,17.80
2023-01-11T23:55:07.259Z,17.90
2023-01-11T23:57:09.871Z,17.90
2023-01-11T23:59:11.620Z,17.90
